sensor_id;sensor_type;location;lat;lon;timestamp;P1;durP1;ratioP1;P2;durP2;ratioP2
29550;SDS011;16488;52.396;10.696;2023-04-19T00:00:47;7.20;;;3.97;;
29550;SDS011;16488;52.396;10.696;2023-04-19T00:03:15;9.63;;;4.93;;
29550;SDS011;16488;52.396;10.696;2023-04-19T00:05:41;5.90;;;4.50;;
29550;SDS011;16488;52.396;10.696;2023-04-19T00:08:07;8.52;;;4.45;;
29550;SDS011;16488;52.396;10.696;2023-04-19T00:10:32;11.02;;;4.15;;
29550;SDS011;16488;52.396;10.696;2023-04-19T00:13:02;13.57;;;4.78;;
29550;SDS011;16488;52.396;10.696;2023-04-19T00:15:28;8.95;;;3.85;;
29550;SDS011;16488;52.396;10.696;2023-04-19T00:17:54;10.30;;;4.50;;
29550;SDS011;16488;52.396;10.696;2023-04-19T00:22:46;9.52;;;4.63;;
29550;SDS011;16488;52.396;10.696;2023-04-19T00:25:11;10.02;;;4.38;;
29550;SDS011;16488;52.396;10.696;2023-04-19T00:27:37;7.20;;;3.95;;
29550;SDS011;16488;52.396;10.696;2023-04-19T00:30:03;6.40;;;4.22;;
29550;SDS011;16488;52.396;10.696;2023-04-19T00:32:29;8.05;;;5.05;;
29550;SDS011;16488;52.396;10.696;2023-04-19T00:34:55;11.00;;;4.50;;
29550;SDS011;16488;52.396;10.696;2023-04-19T00:37:20;10.80;;;4.80;;
29550;SDS011;16488;52.396;10.696;2023-04-19T00:39:46;13.00;;;5.07;;
29550;SDS011;16488;52.396;10.696;2023-04-19T00:42:11;9.60;;;4.50;;
29550;SDS011;16488;52.396;10.696;2023-04-19T00:44:37;9.25;;;4.80;;
29550;SDS011;16488;52.396;10.696;2023-04-19T00:47:02;8.60;;;4.70;;
29550;SDS011;16488;52.396;10.696;2023-04-19T00:49:28;8.68;;;4.20;;
29550;SDS011;16488;52.396;10.696;2023-04-19T00:51:54;8.80;;;3.85;;
29550;SDS011;16488;52.396;10.696;2023-04-19T00:54:20;12.63;;;4.65;;
29550;SDS011;16488;52.396;10.696;2023-04-19T00:56:46;9.85;;;4.50;;
29550;SDS011;16488;52.396;10.696;2023-04-19T00:59:13;7.95;;;3.95;;
29550;SDS011;16488;52.396;10.696;2023-04-19T01:01:40;8.73;;;4.93;;
29550;SDS011;16488;52.396;10.696;2023-04-19T01:04:06;9.55;;;4.75;;
29550;SDS011;16488;52.396;10.696;2023-04-19T01:06:33;10.15;;;4.63;;
29550;SDS011;16488;52.396;10.696;2023-04-19T01:08:59;8.75;;;5.55;;
29550;SDS011;16488;52.396;10.696;2023-04-19T01:11:24;8.18;;;4.25;;
29550;SDS011;16488;52.396;10.696;2023-04-19T01:13:50;9.18;;;4.88;;
29550;SDS011;16488;52.396;10.696;2023-04-19T01:16:16;10.45;;;4.95;;
29550;SDS011;16488;52.396;10.696;2023-04-19T01:18:42;9.75;;;4.32;;
29550;SDS011;16488;52.396;10.696;2023-04-19T01:21:08;11.55;;;4.78;;
29550;SDS011;16488;52.396;10.696;2023-04-19T01:23:34;10.68;;;4.53;;
29550;SDS011;16488;52.396;10.696;2023-04-19T01:26:00;11.30;;;4.93;;
29550;SDS011;16488;52.396;10.696;2023-04-19T01:30:52;9.13;;;4.50;;
29550;SDS011;16488;52.396;10.696;2023-04-19T01:33:19;8.75;;;5.50;;
29550;SDS011;16488;52.396;10.696;2023-04-19T01:35:46;8.05;;;5.22;;
29550;SDS011;16488;52.396;10.696;2023-04-19T01:38:12;9.48;;;5.00;;
29550;SDS011;16488;52.396;10.696;2023-04-19T01:40:38;8.60;;;5.05;;
29550;SDS011;16488;52.396;10.696;2023-04-19T01:43:03;9.63;;;4.57;;
29550;SDS011;16488;52.396;10.696;2023-04-19T01:45:30;10.15;;;4.75;;
29550;SDS011;16488;52.396;10.696;2023-04-19T01:47:57;8.43;;;4.57;;
29550;SDS011;16488;52.396;10.696;2023-04-19T01:50:28;14.48;;;5.03;;
29550;SDS011;16488;52.396;10.696;2023-04-19T01:52:54;6.95;;;4.32;;
29550;SDS011;16488;52.396;10.696;2023-04-19T01:55:20;13.00;;;4.80;;
29550;SDS011;16488;52.396;10.696;2023-04-19T01:57:45;7.78;;;4.40;;
29550;SDS011;16488;52.396;10.696;2023-04-19T02:00:11;12.23;;;5.32;;
29550;SDS011;16488;52.396;10.696;2023-04-19T02:02:37;11.82;;;5.45;;
29550;SDS011;16488;52.396;10.696;2023-04-19T02:05:04;7.28;;;4.63;;
29550;SDS011;16488;52.396;10.696;2023-04-19T02:07:30;8.90;;;4.63;;
29550;SDS011;16488;52.396;10.696;2023-04-19T02:09:55;10.90;;;4.97;;
29550;SDS011;16488;52.396;10.696;2023-04-19T02:12:23;9.52;;;4.63;;
29550;SDS011;16488;52.396;10.696;2023-04-19T02:14:52;10.90;;;4.72;;
29550;SDS011;16488;52.396;10.696;2023-04-19T02:17:21;12.85;;;5.20;;
29550;SDS011;16488;52.396;10.696;2023-04-19T02:19:47;12.52;;;5.68;;
29550;SDS011;16488;52.396;10.696;2023-04-19T02:22:12;10.25;;;5.10;;
29550;SDS011;16488;52.396;10.696;2023-04-19T02:24:38;9.73;;;4.65;;
29550;SDS011;16488;52.396;10.696;2023-04-19T02:27:04;12.45;;;5.00;;
29550;SDS011;16488;52.396;10.696;2023-04-19T02:29:31;7.68;;;4.45;;
29550;SDS011;16488;52.396;10.696;2023-04-19T02:31:57;14.07;;;5.47;;
29550;SDS011;16488;52.396;10.696;2023-04-19T02:34:22;8.05;;;4.88;;
29550;SDS011;16488;52.396;10.696;2023-04-19T02:36:48;10.00;;;4.85;;
29550;SDS011;16488;52.396;10.696;2023-04-19T02:39:13;7.97;;;4.57;;
29550;SDS011;16488;52.396;10.696;2023-04-19T02:41:39;6.70;;;3.75;;
29550;SDS011;16488;52.396;10.696;2023-04-19T02:44:05;8.70;;;4.60;;
29550;SDS011;16488;52.396;10.696;2023-04-19T02:46:31;11.52;;;5.82;;
29550;SDS011;16488;52.396;10.696;2023-04-19T02:48:56;7.55;;;4.07;;
29550;SDS011;16488;52.396;10.696;2023-04-19T02:51:24;7.13;;;4.57;;
29550;SDS011;16488;52.396;10.696;2023-04-19T02:53:51;10.02;;;4.97;;
29550;SDS011;16488;52.396;10.696;2023-04-19T02:56:16;13.75;;;5.05;;
29550;SDS011;16488;52.396;10.696;2023-04-19T02:58:42;14.98;;;4.43;;
29550;SDS011;16488;52.396;10.696;2023-04-19T03:01:08;7.65;;;4.57;;
29550;SDS011;16488;52.396;10.696;2023-04-19T03:03:34;8.00;;;4.22;;
29550;SDS011;16488;52.396;10.696;2023-04-19T03:06:00;18.67;;;5.43;;
29550;SDS011;16488;52.396;10.696;2023-04-19T03:08:26;19.38;;;4.38;;
29550;SDS011;16488;52.396;10.696;2023-04-19T03:10:51;9.55;;;4.38;;
29550;SDS011;16488;52.396;10.696;2023-04-19T03:13:17;7.88;;;3.85;;
29550;SDS011;16488;52.396;10.696;2023-04-19T03:15:42;8.35;;;5.15;;
29550;SDS011;16488;52.396;10.696;2023-04-19T03:18:08;8.23;;;4.47;;
29550;SDS011;16488;52.396;10.696;2023-04-19T03:20:33;9.55;;;4.18;;
29550;SDS011;16488;52.396;10.696;2023-04-19T03:22:59;12.68;;;4.75;;
29550;SDS011;16488;52.396;10.696;2023-04-19T03:25:25;13.27;;;4.72;;
29550;SDS011;16488;52.396;10.696;2023-04-19T03:27:50;17.00;;;8.20;;
29550;SDS011;16488;52.396;10.696;2023-04-19T03:30:16;10.07;;;5.05;;
29550;SDS011;16488;52.396;10.696;2023-04-19T03:32:42;8.75;;;4.95;;
29550;SDS011;16488;52.396;10.696;2023-04-19T03:35:08;8.52;;;5.35;;
29550;SDS011;16488;52.396;10.696;2023-04-19T03:37:33;9.05;;;5.18;;
29550;SDS011;16488;52.396;10.696;2023-04-19T03:39:59;12.15;;;4.70;;
29550;SDS011;16488;52.396;10.696;2023-04-19T03:42:25;8.98;;;5.00;;
29550;SDS011;16488;52.396;10.696;2023-04-19T03:44:51;11.23;;;5.30;;
29550;SDS011;16488;52.396;10.696;2023-04-19T03:47:16;9.35;;;5.18;;
29550;SDS011;16488;52.396;10.696;2023-04-19T03:49:42;10.13;;;4.70;;
29550;SDS011;16488;52.396;10.696;2023-04-19T03:52:07;11.02;;;5.43;;
29550;SDS011;16488;52.396;10.696;2023-04-19T03:54:33;8.00;;;4.47;;
29550;SDS011;16488;52.396;10.696;2023-04-19T03:56:58;9.45;;;4.70;;
29550;SDS011;16488;52.396;10.696;2023-04-19T03:59:24;12.70;;;4.13;;
29550;SDS011;16488;52.396;10.696;2023-04-19T04:01:50;8.73;;;4.38;;
29550;SDS011;16488;52.396;10.696;2023-04-19T04:04:15;7.75;;;4.40;;
29550;SDS011;16488;52.396;10.696;2023-04-19T04:06:41;8.15;;;4.38;;
29550;SDS011;16488;52.396;10.696;2023-04-19T04:09:07;8.27;;;4.50;;
29550;SDS011;16488;52.396;10.696;2023-04-19T04:11:32;7.30;;;4.13;;
29550;SDS011;16488;52.396;10.696;2023-04-19T04:13:58;11.40;;;6.25;;
29550;SDS011;16488;52.396;10.696;2023-04-19T04:16:23;7.82;;;4.57;;
29550;SDS011;16488;52.396;10.696;2023-04-19T04:18:49;14.90;;;4.30;;
29550;SDS011;16488;52.396;10.696;2023-04-19T04:21:15;9.68;;;4.72;;
29550;SDS011;16488;52.396;10.696;2023-04-19T04:23:40;11.70;;;4.82;;
29550;SDS011;16488;52.396;10.696;2023-04-19T04:26:06;7.00;;;4.13;;
29550;SDS011;16488;52.396;10.696;2023-04-19T04:28:34;11.32;;;4.90;;
29550;SDS011;16488;52.396;10.696;2023-04-19T04:31:00;13.88;;;5.72;;
29550;SDS011;16488;52.396;10.696;2023-04-19T04:33:26;11.93;;;4.82;;
29550;SDS011;16488;52.396;10.696;2023-04-19T04:35:55;9.25;;;4.38;;
29550;SDS011;16488;52.396;10.696;2023-04-19T04:38:23;9.80;;;5.53;;
29550;SDS011;16488;52.396;10.696;2023-04-19T04:40:49;14.07;;;4.63;;
29550;SDS011;16488;52.396;10.696;2023-04-19T04:43:21;8.05;;;4.53;;
29550;SDS011;16488;52.396;10.696;2023-04-19T04:45:48;12.20;;;4.68;;
29550;SDS011;16488;52.396;10.696;2023-04-19T04:48:13;14.07;;;5.13;;
29550;SDS011;16488;52.396;10.696;2023-04-19T04:50:40;11.95;;;4.80;;
29550;SDS011;16488;52.396;10.696;2023-04-19T04:53:05;13.68;;;4.97;;
29550;SDS011;16488;52.396;10.696;2023-04-19T04:55:32;15.57;;;5.65;;
29550;SDS011;16488;52.396;10.696;2023-04-19T04:57:59;15.95;;;5.38;;
29550;SDS011;16488;52.396;10.696;2023-04-19T05:00:24;8.13;;;4.68;;
29550;SDS011;16488;52.396;10.696;2023-04-19T05:02:50;14.93;;;8.48;;
29550;SDS011;16488;52.396;10.696;2023-04-19T05:05:16;13.30;;;5.18;;
29550;SDS011;16488;52.396;10.696;2023-04-19T05:07:42;15.73;;;5.85;;
29550;SDS011;16488;52.396;10.696;2023-04-19T05:10:08;9.02;;;4.78;;
29550;SDS011;16488;52.396;10.696;2023-04-19T05:12:33;13.32;;;5.03;;
29550;SDS011;16488;52.396;10.696;2023-04-19T05:15:00;12.50;;;5.15;;
29550;SDS011;16488;52.396;10.696;2023-04-19T05:17:26;10.30;;;5.90;;
29550;SDS011;16488;52.396;10.696;2023-04-19T05:19:51;10.90;;;5.45;;
29550;SDS011;16488;52.396;10.696;2023-04-19T05:22:17;13.55;;;5.50;;
29550;SDS011;16488;52.396;10.696;2023-04-19T05:24:42;10.15;;;6.22;;
29550;SDS011;16488;52.396;10.696;2023-04-19T05:27:08;9.88;;;5.18;;
29550;SDS011;16488;52.396;10.696;2023-04-19T05:32:00;11.98;;;5.63;;
29550;SDS011;16488;52.396;10.696;2023-04-19T05:34:26;7.65;;;4.80;;
29550;SDS011;16488;52.396;10.696;2023-04-19T05:36:53;13.63;;;5.15;;
29550;SDS011;16488;52.396;10.696;2023-04-19T05:39:18;13.10;;;5.53;;
29550;SDS011;16488;52.396;10.696;2023-04-19T05:41:44;10.48;;;4.97;;
29550;SDS011;16488;52.396;10.696;2023-04-19T05:44:10;7.70;;;4.47;;
29550;SDS011;16488;52.396;10.696;2023-04-19T05:46:35;12.00;;;5.50;;
29550;SDS011;16488;52.396;10.696;2023-04-19T05:49:01;15.40;;;5.75;;
29550;SDS011;16488;52.396;10.696;2023-04-19T05:51:27;12.15;;;5.35;;
29550;SDS011;16488;52.396;10.696;2023-04-19T05:53:52;10.23;;;5.70;;
29550;SDS011;16488;52.396;10.696;2023-04-19T05:56:18;17.38;;;5.25;;
29550;SDS011;16488;52.396;10.696;2023-04-19T05:58:44;9.18;;;5.43;;
29550;SDS011;16488;52.396;10.696;2023-04-19T06:01:10;12.65;;;5.15;;
29550;SDS011;16488;52.396;10.696;2023-04-19T06:06:01;7.53;;;5.05;;
29550;SDS011;16488;52.396;10.696;2023-04-19T06:08:27;8.95;;;5.47;;
29550;SDS011;16488;52.396;10.696;2023-04-19T06:10:52;9.25;;;5.80;;
29550;SDS011;16488;52.396;10.696;2023-04-19T06:13:20;8.63;;;4.90;;
29550;SDS011;16488;52.396;10.696;2023-04-19T06:15:46;13.30;;;4.47;;
29550;SDS011;16488;52.396;10.696;2023-04-19T06:20:37;12.52;;;4.93;;
29550;SDS011;16488;52.396;10.696;2023-04-19T06:23:04;9.30;;;4.32;;
29550;SDS011;16488;52.396;10.696;2023-04-19T06:27:56;7.32;;;4.10;;
29550;SDS011;16488;52.396;10.696;2023-04-19T06:30:22;16.98;;;3.85;;
29550;SDS011;16488;52.396;10.696;2023-04-19T06:32:47;8.40;;;4.35;;
29550;SDS011;16488;52.396;10.696;2023-04-19T06:35:13;6.72;;;3.90;;
29550;SDS011;16488;52.396;10.696;2023-04-19T06:40:05;6.65;;;3.88;;
29550;SDS011;16488;52.396;10.696;2023-04-19T06:42:32;9.30;;;4.22;;
29550;SDS011;16488;52.396;10.696;2023-04-19T06:47:24;9.48;;;4.80;;
29550;SDS011;16488;52.396;10.696;2023-04-19T06:49:49;7.85;;;3.67;;
29550;SDS011;16488;52.396;10.696;2023-04-19T06:52:15;6.10;;;3.28;;
29550;SDS011;16488;52.396;10.696;2023-04-19T06:54:41;4.18;;;2.92;;
29550;SDS011;16488;52.396;10.696;2023-04-19T06:57:06;7.88;;;3.05;;
29550;SDS011;16488;52.396;10.696;2023-04-19T06:59:32;5.90;;;3.33;;
29550;SDS011;16488;52.396;10.696;2023-04-19T07:01:58;5.15;;;3.35;;
29550;SDS011;16488;52.396;10.696;2023-04-19T07:04:24;8.25;;;3.10;;
29550;SDS011;16488;52.396;10.696;2023-04-19T07:06:50;11.48;;;3.20;;
29550;SDS011;16488;52.396;10.696;2023-04-19T07:09:16;8.98;;;2.90;;
29550;SDS011;16488;52.396;10.696;2023-04-19T07:11:42;4.32;;;2.78;;
29550;SDS011;16488;52.396;10.696;2023-04-19T07:14:07;5.65;;;3.00;;
29550;SDS011;16488;52.396;10.696;2023-04-19T07:16:33;4.53;;;2.58;;
29550;SDS011;16488;52.396;10.696;2023-04-19T07:18:58;6.22;;;3.28;;
29550;SDS011;16488;52.396;10.696;2023-04-19T07:21:24;3.42;;;2.35;;
29550;SDS011;16488;52.396;10.696;2023-04-19T07:23:52;6.43;;;2.65;;
29550;SDS011;16488;52.396;10.696;2023-04-19T07:26:18;8.05;;;3.25;;
29550;SDS011;16488;52.396;10.696;2023-04-19T07:28:44;6.22;;;3.38;;
29550;SDS011;16488;52.396;10.696;2023-04-19T07:31:16;6.50;;;3.15;;
29550;SDS011;16488;52.396;10.696;2023-04-19T07:33:42;8.93;;;2.80;;
29550;SDS011;16488;52.396;10.696;2023-04-19T07:36:08;4.53;;;2.72;;
29550;SDS011;16488;52.396;10.696;2023-04-19T07:38:34;6.82;;;2.53;;
29550;SDS011;16488;52.396;10.696;2023-04-19T07:41:00;5.78;;;3.05;;
29550;SDS011;16488;52.396;10.696;2023-04-19T07:43:28;4.05;;;2.50;;
29550;SDS011;16488;52.396;10.696;2023-04-19T07:45:54;7.13;;;3.10;;
29550;SDS011;16488;52.396;10.696;2023-04-19T07:48:20;3.97;;;2.53;;
29550;SDS011;16488;52.396;10.696;2023-04-19T07:50:46;10.73;;;2.63;;
29550;SDS011;16488;52.396;10.696;2023-04-19T07:53:12;5.30;;;2.58;;
29550;SDS011;16488;52.396;10.696;2023-04-19T07:55:37;8.80;;;2.67;;
29550;SDS011;16488;52.396;10.696;2023-04-19T07:58:03;5.05;;;2.95;;
29550;SDS011;16488;52.396;10.696;2023-04-19T08:00:29;3.45;;;2.72;;
29550;SDS011;16488;52.396;10.696;2023-04-19T08:02:55;6.65;;;2.38;;
29550;SDS011;16488;52.396;10.696;2023-04-19T08:05:21;8.48;;;3.22;;
29550;SDS011;16488;52.396;10.696;2023-04-19T08:07:47;8.45;;;2.30;;
29550;SDS011;16488;52.396;10.696;2023-04-19T08:10:13;3.45;;;2.53;;
29550;SDS011;16488;52.396;10.696;2023-04-19T08:12:39;4.60;;;2.63;;
29550;SDS011;16488;52.396;10.696;2023-04-19T08:15:06;5.15;;;2.67;;
29550;SDS011;16488;52.396;10.696;2023-04-19T08:17:32;6.35;;;2.72;;
29550;SDS011;16488;52.396;10.696;2023-04-19T08:22:24;3.85;;;2.30;;
29550;SDS011;16488;52.396;10.696;2023-04-19T08:24:50;7.43;;;3.22;;
29550;SDS011;16488;52.396;10.696;2023-04-19T08:29:42;4.85;;;2.55;;
29550;SDS011;16488;52.396;10.696;2023-04-19T08:32:08;8.18;;;3.15;;
29550;SDS011;16488;52.396;10.696;2023-04-19T08:34:35;5.47;;;2.60;;
29550;SDS011;16488;52.396;10.696;2023-04-19T08:37:01;9.15;;;2.75;;
29550;SDS011;16488;52.396;10.696;2023-04-19T08:39:27;4.68;;;2.75;;
29550;SDS011;16488;52.396;10.696;2023-04-19T08:41:54;8.50;;;2.63;;
29550;SDS011;16488;52.396;10.696;2023-04-19T08:44:21;4.80;;;2.50;;
29550;SDS011;16488;52.396;10.696;2023-04-19T08:46:48;4.95;;;2.70;;
29550;SDS011;16488;52.396;10.696;2023-04-19T08:49:14;5.88;;;2.63;;
29550;SDS011;16488;52.396;10.696;2023-04-19T08:51:41;7.68;;;2.60;;
29550;SDS011;16488;52.396;10.696;2023-04-19T08:54:08;4.10;;;2.30;;
29550;SDS011;16488;52.396;10.696;2023-04-19T08:56:34;6.38;;;2.63;;
29550;SDS011;16488;52.396;10.696;2023-04-19T08:59:00;4.15;;;2.78;;
29550;SDS011;16488;52.396;10.696;2023-04-19T09:01:26;6.18;;;3.28;;
29550;SDS011;16488;52.396;10.696;2023-04-19T09:03:52;7.43;;;2.45;;
29550;SDS011;16488;52.396;10.696;2023-04-19T09:06:17;3.92;;;2.83;;
29550;SDS011;16488;52.396;10.696;2023-04-19T09:08:43;5.78;;;2.78;;
29550;SDS011;16488;52.396;10.696;2023-04-19T09:11:08;4.13;;;2.73;;
29550;SDS011;16488;52.396;10.696;2023-04-19T09:13:34;3.17;;;2.47;;
29550;SDS011;16488;52.396;10.696;2023-04-19T09:16:04;7.45;;;2.80;;
29550;SDS011;16488;52.396;10.696;2023-04-19T09:18:32;5.38;;;2.55;;
29550;SDS011;16488;52.396;10.696;2023-04-19T09:20:58;6.70;;;2.38;;
29550;SDS011;16488;52.396;10.696;2023-04-19T09:23:27;7.05;;;2.65;;
29550;SDS011;16488;52.396;10.696;2023-04-19T09:28:21;5.53;;;2.65;;
29550;SDS011;16488;52.396;10.696;2023-04-19T09:30:47;3.83;;;2.05;;
29550;SDS011;16488;52.396;10.696;2023-04-19T09:33:13;6.68;;;2.58;;
29550;SDS011;16488;52.396;10.696;2023-04-19T09:35:54;4.35;;;2.60;;
29550;SDS011;16488;52.396;10.696;2023-04-19T09:38:20;6.07;;;2.75;;
29550;SDS011;16488;52.396;10.696;2023-04-19T09:40:45;3.80;;;2.38;;
29550;SDS011;16488;52.396;10.696;2023-04-19T09:43:13;8.35;;;2.72;;
29550;SDS011;16488;52.396;10.696;2023-04-19T09:45:49;4.28;;;3.10;;
29550;SDS011;16488;52.396;10.696;2023-04-19T09:48:15;8.83;;;2.47;;
29550;SDS011;16488;52.396;10.696;2023-04-19T09:50:56;4.90;;;2.03;;
29550;SDS011;16488;52.396;10.696;2023-04-19T09:53:24;10.95;;;2.40;;
29550;SDS011;16488;52.396;10.696;2023-04-19T09:55:51;4.68;;;2.17;;
29550;SDS011;16488;52.396;10.696;2023-04-19T09:58:18;4.97;;;2.53;;
29550;SDS011;16488;52.396;10.696;2023-04-19T10:00:44;8.93;;;2.35;;
29550;SDS011;16488;52.396;10.696;2023-04-19T10:03:11;5.55;;;2.20;;
29550;SDS011;16488;52.396;10.696;2023-04-19T10:05:41;4.00;;;2.42;;
29550;SDS011;16488;52.396;10.696;2023-04-19T10:08:08;22.13;;;2.83;;
29550;SDS011;16488;52.396;10.696;2023-04-19T10:10:35;8.95;;;3.17;;
29550;SDS011;16488;52.396;10.696;2023-04-19T10:13:03;6.70;;;2.40;;
29550;SDS011;16488;52.396;10.696;2023-04-19T10:15:31;6.50;;;2.03;;
29550;SDS011;16488;52.396;10.696;2023-04-19T10:17:58;6.35;;;2.28;;
29550;SDS011;16488;52.396;10.696;2023-04-19T10:23:15;12.73;;;2.60;;
29550;SDS011;16488;52.396;10.696;2023-04-19T10:25:46;7.50;;;2.25;;
29550;SDS011;16488;52.396;10.696;2023-04-19T10:28:14;6.03;;;2.35;;
29550;SDS011;16488;52.396;10.696;2023-04-19T10:33:26;7.85;;;2.40;;
29550;SDS011;16488;52.396;10.696;2023-04-19T10:35:56;5.85;;;2.30;;
29550;SDS011;16488;52.396;10.696;2023-04-19T10:41:07;6.90;;;2.15;;
29550;SDS011;16488;52.396;10.696;2023-04-19T10:43:36;8.95;;;1.77;;
29550;SDS011;16488;52.396;10.696;2023-04-19T10:51:46;4.40;;;2.08;;
29550;SDS011;16488;52.396;10.696;2023-04-19T10:56:56;3.45;;;2.33;;
29550;SDS011;16488;52.396;10.696;2023-04-19T10:59:23;5.25;;;2.50;;
29550;SDS011;16488;52.396;10.696;2023-04-19T11:01:50;5.03;;;2.42;;
29550;SDS011;16488;52.396;10.696;2023-04-19T11:04:57;8.20;;;2.45;;
29550;SDS011;16488;52.396;10.696;2023-04-19T11:07:15;8.45;;;2.50;;
29550;SDS011;16488;52.396;10.696;2023-04-19T11:09:47;10.77;;;2.40;;
29550;SDS011;16488;52.396;10.696;2023-04-19T11:14:48;4.75;;;2.28;;
29550;SDS011;16488;52.396;10.696;2023-04-19T11:17:24;4.88;;;2.30;;
29550;SDS011;16488;52.396;10.696;2023-04-19T11:19:59;6.05;;;2.50;;
29550;SDS011;16488;52.396;10.696;2023-04-19T11:22:39;9.90;;;2.45;;
29550;SDS011;16488;52.396;10.696;2023-04-19T11:25:11;4.90;;;2.22;;
29550;SDS011;16488;52.396;10.696;2023-04-19T11:27:40;7.25;;;2.53;;
29550;SDS011;16488;52.396;10.696;2023-04-19T11:32:45;3.83;;;2.60;;
29550;SDS011;16488;52.396;10.696;2023-04-19T11:35:12;6.15;;;2.67;;
29550;SDS011;16488;52.396;10.696;2023-04-19T11:40:04;6.85;;;2.17;;
29550;SDS011;16488;52.396;10.696;2023-04-19T11:42:31;3.58;;;2.38;;
29550;SDS011;16488;52.396;10.696;2023-04-19T11:44:57;8.13;;;2.28;;
29550;SDS011;16488;52.396;10.696;2023-04-19T11:47:24;5.60;;;2.80;;
29550;SDS011;16488;52.396;10.696;2023-04-19T11:49:50;4.72;;;2.03;;
29550;SDS011;16488;52.396;10.696;2023-04-19T11:52:19;6.45;;;2.78;;
29550;SDS011;16488;52.396;10.696;2023-04-19T11:54:46;5.00;;;2.42;;
29550;SDS011;16488;52.396;10.696;2023-04-19T11:57:12;4.80;;;2.47;;
29550;SDS011;16488;52.396;10.696;2023-04-19T11:59:38;4.63;;;3.30;;
29550;SDS011;16488;52.396;10.696;2023-04-19T12:02:07;7.63;;;2.73;;
29550;SDS011;16488;52.396;10.696;2023-04-19T12:04:34;5.22;;;2.40;;
29550;SDS011;16488;52.396;10.696;2023-04-19T12:07:01;6.05;;;2.90;;
29550;SDS011;16488;52.396;10.696;2023-04-19T12:09:27;14.45;;;3.03;;
29550;SDS011;16488;52.396;10.696;2023-04-19T12:11:53;7.85;;;2.83;;
29550;SDS011;16488;52.396;10.696;2023-04-19T12:14:20;4.97;;;2.85;;
29550;SDS011;16488;52.396;10.696;2023-04-19T12:19:35;4.18;;;2.67;;
29550;SDS011;16488;52.396;10.696;2023-04-19T12:22:08;7.07;;;2.70;;
29550;SDS011;16488;52.396;10.696;2023-04-19T12:24:36;3.33;;;2.47;;
29550;SDS011;16488;52.396;10.696;2023-04-19T12:27:01;5.82;;;2.85;;
29550;SDS011;16488;52.396;10.696;2023-04-19T12:29:27;6.13;;;2.63;;
29550;SDS011;16488;52.396;10.696;2023-04-19T12:31:53;6.25;;;2.45;;
29550;SDS011;16488;52.396;10.696;2023-04-19T12:37:03;9.10;;;2.88;;
29550;SDS011;16488;52.396;10.696;2023-04-19T12:39:49;4.22;;;2.55;;
29550;SDS011;16488;52.396;10.696;2023-04-19T12:42:15;16.70;;;3.22;;
29550;SDS011;16488;52.396;10.696;2023-04-19T12:44:41;4.97;;;3.10;;
29550;SDS011;16488;52.396;10.696;2023-04-19T12:47:06;4.10;;;2.47;;
29550;SDS011;16488;52.396;10.696;2023-04-19T12:49:32;7.23;;;2.50;;
29550;SDS011;16488;52.396;10.696;2023-04-19T12:51:58;5.47;;;2.78;;
29550;SDS011;16488;52.396;10.696;2023-04-19T12:54:23;7.55;;;2.80;;
29550;SDS011;16488;52.396;10.696;2023-04-19T12:56:49;7.70;;;3.20;;
29550;SDS011;16488;52.396;10.696;2023-04-19T12:59:14;6.30;;;3.10;;
29550;SDS011;16488;52.396;10.696;2023-04-19T13:01:40;4.90;;;2.83;;
29550;SDS011;16488;52.396;10.696;2023-04-19T13:04:06;4.73;;;2.90;;
29550;SDS011;16488;52.396;10.696;2023-04-19T13:06:35;7.55;;;2.88;;
29550;SDS011;16488;52.396;10.696;2023-04-19T13:09:01;9.95;;;3.35;;
29550;SDS011;16488;52.396;10.696;2023-04-19T13:11:27;5.07;;;3.03;;
29550;SDS011;16488;52.396;10.696;2023-04-19T13:13:53;7.60;;;3.70;;
29550;SDS011;16488;52.396;10.696;2023-04-19T13:16:18;10.23;;;3.28;;
29550;SDS011;16488;52.396;10.696;2023-04-19T13:18:44;6.55;;;3.70;;
29550;SDS011;16488;52.396;10.696;2023-04-19T13:21:10;6.13;;;2.80;;
29550;SDS011;16488;52.396;10.696;2023-04-19T13:23:36;7.78;;;3.25;;
29550;SDS011;16488;52.396;10.696;2023-04-19T13:26:02;6.80;;;2.78;;
29550;SDS011;16488;52.396;10.696;2023-04-19T13:28:27;5.65;;;2.72;;
29550;SDS011;16488;52.396;10.696;2023-04-19T13:30:54;7.60;;;3.35;;
29550;SDS011;16488;52.396;10.696;2023-04-19T13:33:19;6.47;;;3.30;;
29550;SDS011;16488;52.396;10.696;2023-04-19T13:35:45;6.00;;;2.60;;
29550;SDS011;16488;52.396;10.696;2023-04-19T13:38:11;6.10;;;3.00;;
29550;SDS011;16488;52.396;10.696;2023-04-19T13:40:36;5.57;;;2.50;;
29550;SDS011;16488;52.396;10.696;2023-04-19T13:43:02;7.22;;;2.70;;
29550;SDS011;16488;52.396;10.696;2023-04-19T13:45:27;10.93;;;2.95;;
29550;SDS011;16488;52.396;10.696;2023-04-19T13:47:53;9.32;;;3.60;;
29550;SDS011;16488;52.396;10.696;2023-04-19T13:50:19;7.13;;;3.40;;
29550;SDS011;16488;52.396;10.696;2023-04-19T13:52:45;6.80;;;3.13;;
29550;SDS011;16488;52.396;10.696;2023-04-19T13:55:10;7.85;;;3.28;;
29550;SDS011;16488;52.396;10.696;2023-04-19T13:57:36;4.97;;;2.90;;
29550;SDS011;16488;52.396;10.696;2023-04-19T14:00:01;5.10;;;2.97;;
29550;SDS011;16488;52.396;10.696;2023-04-19T14:02:27;11.35;;;3.92;;
29550;SDS011;16488;52.396;10.696;2023-04-19T14:04:59;5.85;;;2.78;;
29550;SDS011;16488;52.396;10.696;2023-04-19T14:07:25;8.18;;;3.30;;
29550;SDS011;16488;52.396;10.696;2023-04-19T14:09:51;7.68;;;2.95;;
29550;SDS011;16488;52.396;10.696;2023-04-19T14:12:16;6.50;;;2.72;;
29550;SDS011;16488;52.396;10.696;2023-04-19T14:14:42;10.17;;;3.60;;
29550;SDS011;16488;52.396;10.696;2023-04-19T14:17:07;4.87;;;2.93;;
29550;SDS011;16488;52.396;10.696;2023-04-19T14:19:33;5.23;;;3.20;;
29550;SDS011;16488;52.396;10.696;2023-04-19T14:21:59;9.40;;;3.97;;
29550;SDS011;16488;52.396;10.696;2023-04-19T14:26:52;7.65;;;3.00;;
29550;SDS011;16488;52.396;10.696;2023-04-19T14:29:18;11.23;;;3.90;;
29550;SDS011;16488;52.396;10.696;2023-04-19T14:31:44;8.65;;;3.42;;
29550;SDS011;16488;52.396;10.696;2023-04-19T14:34:09;5.27;;;3.10;;
29550;SDS011;16488;52.396;10.696;2023-04-19T14:36:35;9.77;;;3.10;;
29550;SDS011;16488;52.396;10.696;2023-04-19T14:39:00;9.73;;;3.40;;
29550;SDS011;16488;52.396;10.696;2023-04-19T14:41:26;9.07;;;5.50;;
29550;SDS011;16488;52.396;10.696;2023-04-19T14:43:52;11.82;;;4.50;;
29550;SDS011;16488;52.396;10.696;2023-04-19T14:46:19;6.90;;;3.50;;
29550;SDS011;16488;52.396;10.696;2023-04-19T14:48:45;5.20;;;3.33;;
29550;SDS011;16488;52.396;10.696;2023-04-19T14:51:11;8.95;;;4.30;;
29550;SDS011;16488;52.396;10.696;2023-04-19T14:53:36;6.63;;;3.77;;
29550;SDS011;16488;52.396;10.696;2023-04-19T14:56:03;4.87;;;3.47;;
29550;SDS011;16488;52.396;10.696;2023-04-19T14:58:29;8.23;;;3.58;;
29550;SDS011;16488;52.396;10.696;2023-04-19T15:00:55;6.75;;;3.22;;
29550;SDS011;16488;52.396;10.696;2023-04-19T15:03:21;8.00;;;3.50;;
29550;SDS011;16488;52.396;10.696;2023-04-19T15:05:46;8.60;;;3.45;;
29550;SDS011;16488;52.396;10.696;2023-04-19T15:08:12;10.20;;;3.10;;
29550;SDS011;16488;52.396;10.696;2023-04-19T15:10:38;7.35;;;3.22;;
29550;SDS011;16488;52.396;10.696;2023-04-19T15:13:03;8.43;;;3.40;;
29550;SDS011;16488;52.396;10.696;2023-04-19T15:15:29;7.22;;;3.30;;
29550;SDS011;16488;52.396;10.696;2023-04-19T15:17:55;7.57;;;3.60;;
29550;SDS011;16488;52.396;10.696;2023-04-19T15:20:21;11.38;;;3.55;;
29550;SDS011;16488;52.396;10.696;2023-04-19T15:22:46;7.03;;;3.33;;
29550;SDS011;16488;52.396;10.696;2023-04-19T15:25:12;6.57;;;3.67;;